sensor_id;sensor_type;location;lat;lon;timestamp;P1;durP1;ratioP1;P2;durP2;ratioP2
9904;SDS011;4991;43.566;27.820;2023-11-21T00:00:19;5.43;;;4.50;;
9904;SDS011;4991;43.566;27.820;2023-11-21T00:02:46;8.33;;;4.67;;
9904;SDS011;4991;43.566;27.820;2023-11-21T00:05:13;7.30;;;4.53;;
9904;SDS011;4991;43.566;27.820;2023-11-21T00:07:39;5.67;;;4.13;;
9904;SDS011;4991;43.566;27.820;2023-11-21T00:10:06;7.83;;;5.17;;
9904;SDS011;4991;43.566;27.820;2023-11-21T00:12:36;9.10;;;4.57;;
9904;SDS011;4991;43.566;27.820;2023-11-21T00:15:02;5.37;;;4.13;;
9904;SDS011;4991;43.566;27.820;2023-11-21T00:17:30;5.97;;;4.63;;
9904;SDS011;4991;43.566;27.820;2023-11-21T00:19:56;5.50;;;3.60;;
9904;SDS011;4991;43.566;27.820;2023-11-21T00:22:22;4.17;;;2.97;;
9904;SDS011;4991;43.566;27.820;2023-11-21T00:24:47;4.07;;;3.17;;
9904;SDS011;4991;43.566;27.820;2023-11-21T00:27:13;3.93;;;3.30;;
9904;SDS011;4991;43.566;27.820;2023-11-21T00:29:39;4.23;;;3.30;;
9904;SDS011;4991;43.566;27.820;2023-11-21T00:32:05;4.60;;;2.70;;
9904;SDS011;4991;43.566;27.820;2023-11-21T00:34:32;5.63;;;2.97;;
9904;SDS011;4991;43.566;27.820;2023-11-21T00:36:58;6.30;;;3.57;;
9904;SDS011;4991;43.566;27.820;2023-11-21T00:39:24;4.97;;;3.33;;
9904;SDS011;4991;43.566;27.820;2023-11-21T00:41:51;5.47;;;3.67;;
9904;SDS011;4991;43.566;27.820;2023-11-21T00:44:17;6.53;;;3.57;;
9904;SDS011;4991;43.566;27.820;2023-11-21T00:46:43;6.43;;;3.50;;
9904;SDS011;4991;43.566;27.820;2023-11-21T00:49:08;4.37;;;3.20;;
9904;SDS011;4991;43.566;27.820;2023-11-21T00:51:34;4.73;;;3.70;;
9904;SDS011;4991;43.566;27.820;2023-11-21T00:54:00;5.33;;;3.77;;
9904;SDS011;4991;43.566;27.820;2023-11-21T00:56:26;5.10;;;3.47;;
9904;SDS011;4991;43.566;27.820;2023-11-21T00:58:52;5.63;;;3.70;;
9904;SDS011;4991;43.566;27.820;2023-11-21T01:01:21;5.63;;;3.67;;
9904;SDS011;4991;43.566;27.820;2023-11-21T01:03:49;3.90;;;3.20;;
9904;SDS011;4991;43.566;27.820;2023-11-21T01:06:16;6.43;;;3.60;;
9904;SDS011;4991;43.566;27.820;2023-11-21T01:08:42;7.70;;;4.00;;
9904;SDS011;4991;43.566;27.820;2023-11-21T01:11:08;8.20;;;4.10;;
9904;SDS011;4991;43.566;27.820;2023-11-21T01:13:35;4.40;;;3.27;;
9904;SDS011;4991;43.566;27.820;2023-11-21T01:16:01;5.87;;;3.60;;
9904;SDS011;4991;43.566;27.820;2023-11-21T01:18:26;7.23;;;3.30;;
9904;SDS011;4991;43.566;27.820;2023-11-21T01:20:52;6.00;;;3.60;;
9904;SDS011;4991;43.566;27.820;2023-11-21T01:23:19;5.60;;;3.47;;
9904;SDS011;4991;43.566;27.820;2023-11-21T01:25:45;6.83;;;4.80;;
9904;SDS011;4991;43.566;27.820;2023-11-21T01:28:10;5.10;;;4.13;;
9904;SDS011;4991;43.566;27.820;2023-11-21T01:30:37;7.47;;;3.60;;
9904;SDS011;4991;43.566;27.820;2023-11-21T01:33:03;7.30;;;3.80;;
9904;SDS011;4991;43.566;27.820;2023-11-21T01:35:28;11.07;;;4.23;;
9904;SDS011;4991;43.566;27.820;2023-11-21T01:37:54;4.50;;;3.40;;
9904;SDS011;4991;43.566;27.820;2023-11-21T01:40:20;6.90;;;4.20;;
9904;SDS011;4991;43.566;27.820;2023-11-21T01:42:46;4.37;;;3.60;;
9904;SDS011;4991;43.566;27.820;2023-11-21T01:45:12;8.27;;;4.07;;
9904;SDS011;4991;43.566;27.820;2023-11-21T01:47:39;5.83;;;3.93;;
9904;SDS011;4991;43.566;27.820;2023-11-21T01:50:09;5.77;;;3.53;;
9904;SDS011;4991;43.566;27.820;2023-11-21T01:52:41;5.17;;;3.93;;
9904;SDS011;4991;43.566;27.820;2023-11-21T01:55:09;6.27;;;3.73;;
9904;SDS011;4991;43.566;27.820;2023-11-21T01:57:36;5.57;;;3.30;;
9904;SDS011;4991;43.566;27.820;2023-11-21T02:00:05;5.53;;;3.63;;
9904;SDS011;4991;43.566;27.820;2023-11-21T02:02:42;4.60;;;3.40;;
9904;SDS011;4991;43.566;27.820;2023-11-21T02:05:16;6.50;;;3.57;;
9904;SDS011;4991;43.566;27.820;2023-11-21T02:07:43;8.20;;;4.07;;
9904;SDS011;4991;43.566;27.820;2023-11-21T02:10:10;6.27;;;3.43;;
9904;SDS011;4991;43.566;27.820;2023-11-21T02:12:39;3.60;;;2.93;;
9904;SDS011;4991;43.566;27.820;2023-11-21T02:15:13;5.03;;;3.27;;
9904;SDS011;4991;43.566;27.820;2023-11-21T02:17:45;6.87;;;3.67;;
9904;SDS011;4991;43.566;27.820;2023-11-21T02:20:19;4.27;;;3.30;;
9904;SDS011;4991;43.566;27.820;2023-11-21T02:22:50;5.57;;;3.73;;
9904;SDS011;4991;43.566;27.820;2023-11-21T02:25:23;9.57;;;4.13;;
9904;SDS011;4991;43.566;27.820;2023-11-21T02:27:50;4.73;;;3.63;;
9904;SDS011;4991;43.566;27.820;2023-11-21T02:30:16;5.17;;;3.47;;
9904;SDS011;4991;43.566;27.820;2023-11-21T02:32:42;5.83;;;4.00;;
9904;SDS011;4991;43.566;27.820;2023-11-21T02:35:08;6.90;;;3.80;;
9904;SDS011;4991;43.566;27.820;2023-11-21T02:37:34;9.80;;;5.00;;
9904;SDS011;4991;43.566;27.820;2023-11-21T02:40:01;9.90;;;4.50;;
9904;SDS011;4991;43.566;27.820;2023-11-21T02:42:29;11.43;;;5.10;;
9904;SDS011;4991;43.566;27.820;2023-11-21T02:44:55;6.47;;;4.17;;
9904;SDS011;4991;43.566;27.820;2023-11-21T02:47:22;5.77;;;3.90;;
9904;SDS011;4991;43.566;27.820;2023-11-21T02:49:48;5.40;;;3.73;;
9904;SDS011;4991;43.566;27.820;2023-11-21T02:52:14;5.07;;;3.43;;
9904;SDS011;4991;43.566;27.820;2023-11-21T02:54:40;6.77;;;3.80;;
9904;SDS011;4991;43.566;27.820;2023-11-21T02:57:06;7.57;;;4.63;;
9904;SDS011;4991;43.566;27.820;2023-11-21T02:59:32;5.63;;;3.83;;
9904;SDS011;4991;43.566;27.820;2023-11-21T03:01:58;4.90;;;3.40;;
9904;SDS011;4991;43.566;27.820;2023-11-21T03:04:24;4.80;;;3.77;;
9904;SDS011;4991;43.566;27.820;2023-11-21T03:06:49;8.17;;;4.50;;
9904;SDS011;4991;43.566;27.820;2023-11-21T03:09:15;6.37;;;4.33;;
9904;SDS011;4991;43.566;27.820;2023-11-21T03:11:41;5.93;;;4.17;;
9904;SDS011;4991;43.566;27.820;2023-11-21T03:14:07;5.53;;;4.20;;
9904;SDS011;4991;43.566;27.820;2023-11-21T03:16:32;5.80;;;4.20;;
9904;SDS011;4991;43.566;27.820;2023-11-21T03:18:58;6.43;;;3.97;;
9904;SDS011;4991;43.566;27.820;2023-11-21T03:21:24;5.83;;;3.43;;
9904;SDS011;4991;43.566;27.820;2023-11-21T03:24:09;5.40;;;3.60;;
9904;SDS011;4991;43.566;27.820;2023-11-21T03:26:35;5.57;;;4.07;;
9904;SDS011;4991;43.566;27.820;2023-11-21T03:29:04;6.57;;;4.40;;
9904;SDS011;4991;43.566;27.820;2023-11-21T03:31:30;6.17;;;4.10;;
9904;SDS011;4991;43.566;27.820;2023-11-21T03:33:57;5.00;;;3.67;;
9904;SDS011;4991;43.566;27.820;2023-11-21T03:36:22;8.80;;;4.37;;
9904;SDS011;4991;43.566;27.820;2023-11-21T03:38:50;4.80;;;3.83;;
9904;SDS011;4991;43.566;27.820;2023-11-21T03:41:23;6.57;;;4.30;;
9904;SDS011;4991;43.566;27.820;2023-11-21T03:43:48;9.67;;;4.70;;
9904;SDS011;4991;43.566;27.820;2023-11-21T03:46:14;6.13;;;4.40;;
9904;SDS011;4991;43.566;27.820;2023-11-21T03:53:58;6.37;;;3.97;;
9904;SDS011;4991;43.566;27.820;2023-11-21T03:56:24;5.83;;;3.80;;
9904;SDS011;4991;43.566;27.820;2023-11-21T03:58:50;5.17;;;3.90;;
9904;SDS011;4991;43.566;27.820;2023-11-21T04:01:22;7.20;;;4.00;;
9904;SDS011;4991;43.566;27.820;2023-11-21T04:03:49;5.03;;;4.10;;
9904;SDS011;4991;43.566;27.820;2023-11-21T04:06:16;9.00;;;3.77;;
9904;SDS011;4991;43.566;27.820;2023-11-21T04:08:43;5.53;;;4.10;;
9904;SDS011;4991;43.566;27.820;2023-11-21T04:11:10;7.83;;;4.13;;
9904;SDS011;4991;43.566;27.820;2023-11-21T04:13:39;6.40;;;4.33;;
9904;SDS011;4991;43.566;27.820;2023-11-21T04:22:05;5.60;;;3.60;;
9904;SDS011;4991;43.566;27.820;2023-11-21T04:24:41;4.63;;;3.40;;
9904;SDS011;4991;43.566;27.820;2023-11-21T04:27:06;5.17;;;3.63;;
9904;SDS011;4991;43.566;27.820;2023-11-21T04:34:56;6.43;;;4.00;;
9904;SDS011;4991;43.566;27.820;2023-11-21T04:37:22;6.17;;;3.93;;
9904;SDS011;4991;43.566;27.820;2023-11-21T04:39:47;6.67;;;3.60;;
9904;SDS011;4991;43.566;27.820;2023-11-21T04:42:13;5.23;;;4.03;;
9904;SDS011;4991;43.566;27.820;2023-11-21T04:44:39;5.50;;;4.00;;
9904;SDS011;4991;43.566;27.820;2023-11-21T04:47:06;5.50;;;4.00;;
9904;SDS011;4991;43.566;27.820;2023-11-21T04:49:33;6.23;;;4.47;;
9904;SDS011;4991;43.566;27.820;2023-11-21T04:51:59;6.50;;;4.37;;
9904;SDS011;4991;43.566;27.820;2023-11-21T04:54:25;7.00;;;5.30;;
9904;SDS011;4991;43.566;27.820;2023-11-21T04:56:53;9.70;;;5.40;;
9904;SDS011;4991;43.566;27.820;2023-11-21T04:59:18;16.93;;;6.70;;
9904;SDS011;4991;43.566;27.820;2023-11-21T05:04:13;11.07;;;5.80;;
9904;SDS011;4991;43.566;27.820;2023-11-21T05:06:40;12.03;;;6.07;;
9904;SDS011;4991;43.566;27.820;2023-11-21T05:09:07;6.60;;;5.20;;
9904;SDS011;4991;43.566;27.820;2023-11-21T05:11:43;8.43;;;5.40;;
9904;SDS011;4991;43.566;27.820;2023-11-21T05:16:58;29.17;;;9.53;;
9904;SDS011;4991;43.566;27.820;2023-11-21T05:22:05;18.13;;;7.87;;
9904;SDS011;4991;43.566;27.820;2023-11-21T05:24:31;10.60;;;5.73;;
9904;SDS011;4991;43.566;27.820;2023-11-21T05:26:56;8.20;;;4.37;;
9904;SDS011;4991;43.566;27.820;2023-11-21T05:29:22;6.10;;;4.93;;
9904;SDS011;4991;43.566;27.820;2023-11-21T05:31:48;8.90;;;5.60;;
9904;SDS011;4991;43.566;27.820;2023-11-21T05:34:14;7.10;;;4.87;;
9904;SDS011;4991;43.566;27.820;2023-11-21T05:36:42;10.17;;;6.17;;
9904;SDS011;4991;43.566;27.820;2023-11-21T05:39:09;15.03;;;11.13;;
9904;SDS011;4991;43.566;27.820;2023-11-21T05:41:37;15.00;;;11.20;;
9904;SDS011;4991;43.566;27.820;2023-11-21T05:44:03;8.23;;;6.37;;
9904;SDS011;4991;43.566;27.820;2023-11-21T05:46:28;6.77;;;4.80;;
9904;SDS011;4991;43.566;27.820;2023-11-21T05:48:55;10.17;;;5.13;;
9904;SDS011;4991;43.566;27.820;2023-11-21T05:51:20;10.80;;;6.40;;
9904;SDS011;4991;43.566;27.820;2023-11-21T05:53:46;10.77;;;6.43;;
9904;SDS011;4991;43.566;27.820;2023-11-21T05:56:12;9.63;;;6.80;;
9904;SDS011;4991;43.566;27.820;2023-11-21T05:58:38;12.43;;;8.67;;
9904;SDS011;4991;43.566;27.820;2023-11-21T06:01:05;26.40;;;14.13;;
9904;SDS011;4991;43.566;27.820;2023-11-21T06:03:34;25.53;;;11.23;;
9904;SDS011;4991;43.566;27.820;2023-11-21T06:06:00;17.33;;;9.30;;
9904;SDS011;4991;43.566;27.820;2023-11-21T06:08:26;12.73;;;7.70;;
9904;SDS011;4991;43.566;27.820;2023-11-21T06:10:53;13.23;;;7.53;;
9904;SDS011;4991;43.566;27.820;2023-11-21T06:13:18;10.30;;;6.00;;
9904;SDS011;4991;43.566;27.820;2023-11-21T06:15:49;10.07;;;6.23;;
9904;SDS011;4991;43.566;27.820;2023-11-21T06:18:16;8.50;;;6.13;;
9904;SDS011;4991;43.566;27.820;2023-11-21T06:20:46;11.93;;;5.27;;
9904;SDS011;4991;43.566;27.820;2023-11-21T06:23:11;4.60;;;3.50;;
9904;SDS011;4991;43.566;27.820;2023-11-21T06:25:37;5.67;;;3.63;;
9904;SDS011;4991;43.566;27.820;2023-11-21T06:28:03;4.30;;;2.80;;
9904;SDS011;4991;43.566;27.820;2023-11-21T06:30:29;5.47;;;3.47;;
9904;SDS011;4991;43.566;27.820;2023-11-21T06:32:54;5.40;;;3.60;;
9904;SDS011;4991;43.566;27.820;2023-11-21T06:35:21;5.77;;;2.90;;
9904;SDS011;4991;43.566;27.820;2023-11-21T06:37:47;4.73;;;3.07;;
9904;SDS011;4991;43.566;27.820;2023-11-21T06:40:13;6.60;;;3.30;;
9904;SDS011;4991;43.566;27.820;2023-11-21T06:42:43;5.10;;;3.20;;
9904;SDS011;4991;43.566;27.820;2023-11-21T06:45:10;6.60;;;3.77;;
9904;SDS011;4991;43.566;27.820;2023-11-21T06:47:37;3.93;;;2.77;;
9904;SDS011;4991;43.566;27.820;2023-11-21T06:50:03;4.63;;;2.80;;
9904;SDS011;4991;43.566;27.820;2023-11-21T06:52:29;3.73;;;2.50;;
9904;SDS011;4991;43.566;27.820;2023-11-21T06:54:55;5.37;;;2.53;;
9904;SDS011;4991;43.566;27.820;2023-11-21T06:57:22;6.13;;;3.27;;
9904;SDS011;4991;43.566;27.820;2023-11-21T06:59:48;3.97;;;2.50;;
9904;SDS011;4991;43.566;27.820;2023-11-21T07:02:15;2.80;;;2.07;;
9904;SDS011;4991;43.566;27.820;2023-11-21T07:04:44;4.23;;;2.77;;
9904;SDS011;4991;43.566;27.820;2023-11-21T07:07:11;3.60;;;2.57;;
9904;SDS011;4991;43.566;27.820;2023-11-21T07:09:37;6.50;;;2.73;;
9904;SDS011;4991;43.566;27.820;2023-11-21T07:12:04;4.13;;;2.80;;
9904;SDS011;4991;43.566;27.820;2023-11-21T07:14:33;7.40;;;2.70;;
9904;SDS011;4991;43.566;27.820;2023-11-21T07:16:59;4.07;;;2.43;;
9904;SDS011;4991;43.566;27.820;2023-11-21T07:19:26;4.40;;;3.30;;
9904;SDS011;4991;43.566;27.820;2023-11-21T07:21:52;8.43;;;4.13;;
9904;SDS011;4991;43.566;27.820;2023-11-21T07:24:18;10.10;;;4.43;;
9904;SDS011;4991;43.566;27.820;2023-11-21T07:26:43;5.10;;;3.20;;
9904;SDS011;4991;43.566;27.820;2023-11-21T07:29:09;7.17;;;4.10;;
9904;SDS011;4991;43.566;27.820;2023-11-21T07:31:36;5.63;;;3.33;;
9904;SDS011;4991;43.566;27.820;2023-11-21T07:34:03;8.20;;;4.83;;
9904;SDS011;4991;43.566;27.820;2023-11-21T07:36:28;7.63;;;5.10;;
9904;SDS011;4991;43.566;27.820;2023-11-21T07:38:56;6.37;;;4.57;;
9904;SDS011;4991;43.566;27.820;2023-11-21T07:41:21;4.47;;;2.87;;
9904;SDS011;4991;43.566;27.820;2023-11-21T07:43:47;5.23;;;2.50;;
9904;SDS011;4991;43.566;27.820;2023-11-21T07:46:13;3.93;;;2.40;;
9904;SDS011;4991;43.566;27.820;2023-11-21T07:48:39;2.90;;;2.30;;
9904;SDS011;4991;43.566;27.820;2023-11-21T07:51:07;3.83;;;1.90;;
9904;SDS011;4991;43.566;27.820;2023-11-21T07:53:34;3.67;;;2.33;;
9904;SDS011;4991;43.566;27.820;2023-11-21T07:56:04;3.73;;;2.27;;
9904;SDS011;4991;43.566;27.820;2023-11-21T07:58:31;4.93;;;2.33;;
9904;SDS011;4991;43.566;27.820;2023-11-21T08:01:00;3.30;;;2.00;;
9904;SDS011;4991;43.566;27.820;2023-11-21T08:03:27;5.07;;;2.57;;
9904;SDS011;4991;43.566;27.820;2023-11-21T08:05:54;7.33;;;4.03;;
9904;SDS011;4991;43.566;27.820;2023-11-21T08:08:20;6.57;;;4.57;;
9904;SDS011;4991;43.566;27.820;2023-11-21T08:10:46;7.73;;;3.83;;
9904;SDS011;4991;43.566;27.820;2023-11-21T08:13:21;7.67;;;3.50;;
9904;SDS011;4991;43.566;27.820;2023-11-21T08:15:54;6.80;;;2.97;;
9904;SDS011;4991;43.566;27.820;2023-11-21T08:18:22;4.80;;;3.20;;
9904;SDS011;4991;43.566;27.820;2023-11-21T08:20:48;6.03;;;2.97;;
9904;SDS011;4991;43.566;27.820;2023-11-21T08:23:14;4.03;;;2.77;;
9904;SDS011;4991;43.566;27.820;2023-11-21T08:25:44;6.80;;;2.77;;
9904;SDS011;4991;43.566;27.820;2023-11-21T08:28:11;5.97;;;3.03;;
9904;SDS011;4991;43.566;27.820;2023-11-21T08:30:39;5.07;;;2.50;;
9904;SDS011;4991;43.566;27.820;2023-11-21T08:33:06;5.97;;;3.00;;
9904;SDS011;4991;43.566;27.820;2023-11-21T08:35:33;6.97;;;2.63;;
9904;SDS011;4991;43.566;27.820;2023-11-21T08:38:00;3.57;;;2.43;;
9904;SDS011;4991;43.566;27.820;2023-11-21T08:40:25;4.33;;;2.20;;
9904;SDS011;4991;43.566;27.820;2023-11-21T08:42:52;5.27;;;2.20;;
9904;SDS011;4991;43.566;27.820;2023-11-21T08:45:18;5.53;;;2.53;;
9904;SDS011;4991;43.566;27.820;2023-11-21T08:47:44;4.97;;;2.47;;
9904;SDS011;4991;43.566;27.820;2023-11-21T08:50:10;3.80;;;2.20;;
9904;SDS011;4991;43.566;27.820;2023-11-21T08:52:40;2.23;;;2.00;;
9904;SDS011;4991;43.566;27.820;2023-11-21T08:55:10;4.07;;;2.40;;
9904;SDS011;4991;43.566;27.820;2023-11-21T08:57:37;4.50;;;2.40;;
9904;SDS011;4991;43.566;27.820;2023-11-21T09:00:04;3.33;;;2.03;;
9904;SDS011;4991;43.566;27.820;2023-11-21T09:02:41;7.17;;;3.67;;
9904;SDS011;4991;43.566;27.820;2023-11-21T09:05:10;6.63;;;4.03;;
9904;SDS011;4991;43.566;27.820;2023-11-21T09:07:37;5.70;;;3.23;;
9904;SDS011;4991;43.566;27.820;2023-11-21T09:10:04;5.00;;;3.77;;
9904;SDS011;4991;43.566;27.820;2023-11-21T09:12:33;5.63;;;3.60;;
9904;SDS011;4991;43.566;27.820;2023-11-21T09:15:01;6.53;;;4.27;;
9904;SDS011;4991;43.566;27.820;2023-11-21T09:17:29;7.00;;;4.03;;
9904;SDS011;4991;43.566;27.820;2023-11-21T09:19:55;7.27;;;3.30;;
9904;SDS011;4991;43.566;27.820;2023-11-21T09:22:22;4.40;;;2.73;;
9904;SDS011;4991;43.566;27.820;2023-11-21T09:24:50;6.00;;;3.03;;
9904;SDS011;4991;43.566;27.820;2023-11-21T09:27:16;7.60;;;3.67;;
9904;SDS011;4991;43.566;27.820;2023-11-21T09:29:42;5.77;;;3.00;;
9904;SDS011;4991;43.566;27.820;2023-11-21T09:32:08;4.90;;;2.83;;
9904;SDS011;4991;43.566;27.820;2023-11-21T09:34:39;5.07;;;2.40;;
9904;SDS011;4991;43.566;27.820;2023-11-21T09:37:05;4.53;;;2.57;;
9904;SDS011;4991;43.566;27.820;2023-11-21T09:39:32;4.20;;;2.50;;
9904;SDS011;4991;43.566;27.820;2023-11-21T09:42:04;4.47;;;2.80;;
9904;SDS011;4991;43.566;27.820;2023-11-21T09:44:53;6.20;;;2.70;;
9904;SDS011;4991;43.566;27.820;2023-11-21T09:47:24;3.67;;;2.27;;
9904;SDS011;4991;43.566;27.820;2023-11-21T09:49:49;3.13;;;1.93;;
9904;SDS011;4991;43.566;27.820;2023-11-21T09:52:27;7.47;;;2.70;;
9904;SDS011;4991;43.566;27.820;2023-11-21T09:54:53;2.70;;;1.67;;
9904;SDS011;4991;43.566;27.820;2023-11-21T09:57:22;5.37;;;2.37;;
9904;SDS011;4991;43.566;27.820;2023-11-21T09:59:52;5.80;;;3.03;;
9904;SDS011;4991;43.566;27.820;2023-11-21T10:02:22;4.17;;;2.60;;
9904;SDS011;4991;43.566;27.820;2023-11-21T10:04:53;4.17;;;2.77;;
9904;SDS011;4991;43.566;27.820;2023-11-21T10:07:20;8.03;;;2.40;;
9904;SDS011;4991;43.566;27.820;2023-11-21T10:09:46;5.43;;;2.00;;
9904;SDS011;4991;43.566;27.820;2023-11-21T10:12:14;4.40;;;1.90;;
9904;SDS011;4991;43.566;27.820;2023-11-21T10:14:41;3.57;;;2.40;;
9904;SDS011;4991;43.566;27.820;2023-11-21T10:17:12;4.40;;;2.87;;
9904;SDS011;4991;43.566;27.820;2023-11-21T10:19:42;2.30;;;1.60;;
9904;SDS011;4991;43.566;27.820;2023-11-21T10:22:08;4.20;;;2.20;;
9904;SDS011;4991;43.566;27.820;2023-11-21T10:24:34;3.93;;;1.57;;
9904;SDS011;4991;43.566;27.820;2023-11-21T10:27:00;7.83;;;1.80;;
9904;SDS011;4991;43.566;27.820;2023-11-21T10:29:31;4.00;;;1.70;;
9904;SDS011;4991;43.566;27.820;2023-11-21T10:32:03;2.97;;;1.83;;
9904;SDS011;4991;43.566;27.820;2023-11-21T10:34:30;4.53;;;2.20;;
9904;SDS011;4991;43.566;27.820;2023-11-21T10:36:57;4.80;;;2.60;;
9904;SDS011;4991;43.566;27.820;2023-11-21T10:39:23;3.37;;;1.80;;
9904;SDS011;4991;43.566;27.820;2023-11-21T10:41:53;4.37;;;2.43;;
9904;SDS011;4991;43.566;27.820;2023-11-21T10:44:20;4.10;;;2.03;;
9904;SDS011;4991;43.566;27.820;2023-11-21T10:46:50;7.90;;;2.07;;
9904;SDS011;4991;43.566;27.820;2023-11-21T10:49:22;3.03;;;2.10;;
9904;SDS011;4991;43.566;27.820;2023-11-21T10:51:52;3.97;;;2.90;;
9904;SDS011;4991;43.566;27.820;2023-11-21T10:54:23;4.23;;;2.67;;
9904;SDS011;4991;43.566;27.820;2023-11-21T10:56:52;3.30;;;2.47;;
9904;SDS011;4991;43.566;27.820;2023-11-21T10:59:22;5.90;;;2.13;;
9904;SDS011;4991;43.566;27.820;2023-11-21T11:01:50;3.73;;;2.03;;
9904;SDS011;4991;43.566;27.820;2023-11-21T11:04:20;3.20;;;1.70;;
9904;SDS011;4991;43.566;27.820;2023-11-21T11:07:03;8.33;;;2.57;;
9904;SDS011;4991;43.566;27.820;2023-11-21T11:09:31;9.40;;;3.53;;
9904;SDS011;4991;43.566;27.820;2023-11-21T11:12:03;7.33;;;2.70;;
9904;SDS011;4991;43.566;27.820;2023-11-21T11:14:29;5.57;;;2.43;;
9904;SDS011;4991;43.566;27.820;2023-11-21T11:16:57;3.90;;;1.67;;
9904;SDS011;4991;43.566;27.820;2023-11-21T11:19:24;1.47;;;1.30;;
9904;SDS011;4991;43.566;27.820;2023-11-21T11:25:02;3.33;;;1.67;;
9904;SDS011;4991;43.566;27.820;2023-11-21T11:31:02;2.63;;;1.73;;
9904;SDS011;4991;43.566;27.820;2023-11-21T11:33:39;8.13;;;2.20;;
9904;SDS011;4991;43.566;27.820;2023-11-21T11:38:52;5.80;;;2.73;;
9904;SDS011;4991;43.566;27.820;2023-11-21T11:41:28;4.00;;;2.07;;
9904;SDS011;4991;43.566;27.820;2023-11-21T11:43:57;5.30;;;2.40;;
9904;SDS011;4991;43.566;27.820;2023-11-21T11:46:40;6.60;;;2.70;;
9904;SDS011;4991;43.566;27.820;2023-11-21T11:49:07;8.23;;;2.70;;
9904;SDS011;4991;43.566;27.820;2023-11-21T11:51:33;3.33;;;2.10;;
9904;SDS011;4991;43.566;27.820;2023-11-21T11:54:01;6.17;;;2.60;;
9904;SDS011;4991;43.566;27.820;2023-11-21T11:56:33;2.57;;;1.50;;
9904;SDS011;4991;43.566;27.820;2023-11-21T11:59:04;3.73;;;2.10;;
9904;SDS011;4991;43.566;27.820;2023-11-21T12:01:32;2.93;;;1.83;;
9904;SDS011;4991;43.566;27.820;2023-11-21T12:06:51;2.50;;;1.77;;
9904;SDS011;4991;43.566;27.820;2023-11-21T12:09:21;3.03;;;1.87;;
9904;SDS011;4991;43.566;27.820;2023-11-21T12:11:49;2.43;;;1.60;;
9904;SDS011;4991;43.566;27.820;2023-11-21T12:14:15;3.53;;;1.95;;
9904;SDS011;4991;43.566;27.820;2023-11-21T12:16:42;2.85;;;1.67;;
9904;SDS011;4991;43.566;27.820;2023-11-21T12:19:09;3.05;;;1.55;;
9904;SDS011;4991;43.566;27.820;2023-11-21T12:21:37;3.33;;;1.33;;
9904;SDS011;4991;43.566;27.820;2023-11-21T12:24:04;2.47;;;1.50;;
9904;SDS011;4991;43.566;27.820;2023-11-21T12:26:34;1.70;;;1.10;;
9904;SDS011;4991;43.566;27.820;2023-11-21T12:29:01;1.50;;;1.20;;
9904;SDS011;4991;43.566;27.820;2023-11-21T12:31:29;2.20;;;1.40;;
9904;SDS011;4991;43.566;27.820;2023-11-21T12:33:56;2.13;;;1.60;;
9904;SDS011;4991;43.566;27.820;2023-11-21T12:36:22;2.67;;;1.20;;
9904;SDS011;4991;43.566;27.820;2023-11-21T12:38:48;2.47;;;1.63;;
9904;SDS011;4991;43.566;27.820;2023-11-21T12:41:14;3.40;;;2.70;;
9904;SDS011;4991;43.566;27.820;2023-11-21T12:43:42;4.68;;;3.67;;
9904;SDS011;4991;43.566;27.820;2023-11-21T12:46:09;6.03;;;3.95;;
9904;SDS011;4991;43.566;27.820;2023-11-21T12:48:43;5.65;;;4.47;;
9904;SDS011;4991;43.566;27.820;2023-11-21T12:51:11;5.47;;;2.78;;
9904;SDS011;4991;43.566;27.820;2023-11-21T12:53:40;5.28;;;3.85;;
9904;SDS011;4991;43.566;27.820;2023-11-21T12:56:07;7.28;;;5.07;;
9904;SDS011;4991;43.566;27.820;2023-11-21T12:58:36;6.68;;;4.43;;
9904;SDS011;4991;43.566;27.820;2023-11-21T13:01:05;4.85;;;3.78;;
9904;SDS011;4991;43.566;27.820;2023-11-21T13:03:39;6.28;;;3.70;;
9904;SDS011;4991;43.566;27.820;2023-11-21T13:06:05;4.55;;;3.45;;
9904;SDS011;4991;43.566;27.820;2023-11-21T13:08:33;4.47;;;3.30;;
9904;SDS011;4991;43.566;27.820;2023-11-21T13:10:59;3.90;;;2.22;;
9904;SDS011;4991;43.566;27.820;2023-11-21T13:13:27;6.53;;;2.63;;
9904;SDS011;4991;43.566;27.820;2023-11-21T13:15:58;5.28;;;2.88;;
9904;SDS011;4991;43.566;27.820;2023-11-21T13:18:33;3.08;;;2.40;;
9904;SDS011;4991;43.566;27.820;2023-11-21T13:21:01;3.92;;;2.40;;
9904;SDS011;4991;43.566;27.820;2023-11-21T13:23:42;5.80;;;3.88;;
9904;SDS011;4991;43.566;27.820;2023-11-21T13:26:11;3.63;;;2.90;;
9904;SDS011;4991;43.566;27.820;2023-11-21T13:28:39;5.27;;;3.10;;
9904;SDS011;4991;43.566;27.820;2023-11-21T13:31:06;8.37;;;3.63;;
9904;SDS011;4991;43.566;27.820;2023-11-21T13:33:37;3.90;;;3.10;;
9904;SDS011;4991;43.566;27.820;2023-11-21T13:36:07;5.90;;;4.03;;
9904;SDS011;4991;43.566;27.820;2023-11-21T13:38:34;7.47;;;4.33;;
9904;SDS011;4991;43.566;27.820;2023-11-21T13:41:02;5.90;;;3.83;;
9904;SDS011;4991;43.566;27.820;2023-11-21T13:43:32;7.87;;;4.40;;
9904;SDS011;4991;43.566;27.820;2023-11-21T13:45:58;7.93;;;4.50;;
9904;SDS011;4991;43.566;27.820;2023-11-21T13:48:34;8.53;;;5.70;;
9904;SDS011;4991;43.566;27.820;2023-11-21T13:51:15;7.03;;;5.43;;
9904;SDS011;4991;43.566;27.820;2023-11-21T13:53:45;8.97;;;6.50;;
9904;SDS011;4991;43.566;27.820;2023-11-21T13:56:17;9.07;;;6.67;;
9904;SDS011;4991;43.566;27.820;2023-11-21T13:58:49;8.63;;;6.43;;
9904;SDS011;4991;43.566;27.820;2023-11-21T14:01:19;7.33;;;4.90;;
9904;SDS011;4991;43.566;27.820;2023-11-21T14:03:56;12.47;;;6.90;;
9904;SDS011;4991;43.566;27.820;2023-11-21T14:06:36;9.67;;;5.63;;
9904;SDS011;4991;43.566;27.820;2023-11-21T14:09:13;11.33;;;5.60;;
9904;SDS011;4991;43.566;27.820;2023-11-21T14:11:53;9.60;;;6.80;;
9904;SDS011;4991;43.566;27.820;2023-11-21T14:14:21;7.57;;;6.23;;
9904;SDS011;4991;43.566;27.820;2023-11-21T14:16:50;13.40;;;7.40;;
9904;SDS011;4991;43.566;27.820;2023-11-21T14:19:21;27.03;;;9.20;;
9904;SDS011;4991;43.566;27.820;2023-11-21T14:21:47;17.23;;;8.17;;
9904;SDS011;4991;43.566;27.820;2023-11-21T14:24:16;15.27;;;7.70;;
9904;SDS011;4991;43.566;27.820;2023-11-21T14:26:43;13.90;;;8.70;;
9904;SDS011;4991;43.566;27.820;2023-11-21T14:29:13;15.90;;;11.13;;
9904;SDS011;4991;43.566;27.820;2023-11-21T14:31:42;21.47;;;12.13;;
9904;SDS011;4991;43.566;27.820;2023-11-21T14:34:08;26.07;;;16.20;;
9904;SDS011;4991;43.566;27.820;2023-11-21T14:36:34;18.40;;;13.20;;
9904;SDS011;4991;43.566;27.820;2023-11-21T14:39:04;19.27;;;13.77;;
9904;SDS011;4991;43.566;27.820;2023-11-21T14:41:34;20.47;;;14.40;;
9904;SDS011;4991;43.566;27.820;2023-11-21T14:44:02;27.57;;;15.23;;
9904;SDS011;4991;43.566;27.820;2023-11-21T14:46:30;20.60;;;14.13;;
9904;SDS011;4991;43.566;27.820;2023-11-21T14:48:56;16.67;;;11.87;;
9904;SDS011;4991;43.566;27.820;2023-11-21T14:51:32;19.27;;;16.00;;
9904;SDS011;4991;43.566;27.820;2023-11-21T14:54:16;17.57;;;13.97;;
9904;SDS011;4991;43.566;27.820;2023-11-21T14:56:50;17.93;;;13.30;;
9904;SDS011;4991;43.566;27.820;2023-11-21T14:59:16;15.80;;;11.03;;
9904;SDS011;4991;43.566;27.820;2023-11-21T15:01:42;18.27;;;13.20;;
9904;SDS011;4991;43.566;27.820;2023-11-21T15:04:18;17.27;;;12.30;;
9904;SDS011;4991;43.566;27.820;2023-11-21T15:07:04;18.47;;;12.80;;
9904;SDS011;4991;43.566;27.820;2023-11-21T15:09:30;18.00;;;13.60;;
9904;SDS011;4991;43.566;27.820;2023-11-21T15:12:02;22.00;;;15.07;;
9904;SDS011;4991;43.566;27.820;2023-11-21T15:14:50;21.30;;;13.87;;
9904;SDS011;4991;43.566;27.820;2023-11-21T15:17:21;24.60;;;17.97;;
9904;SDS011;4991;43.566;27.820;2023-11-21T15:19:57;25.73;;;18.30;;
9904;SDS011;4991;43.566;27.820;2023-11-21T15:22:23;28.27;;;20.23;;
9904;SDS011;4991;43.566;27.820;2023-11-21T15:24:49;28.17;;;20.70;;
9904;SDS011;4991;43.566;27.820;2023-11-21T15:27:15;41.67;;;24.20;;
9904;SDS011;4991;43.566;27.820;2023-11-21T15:29:42;30.00;;;22.77;;
9904;SDS011;4991;43.566;27.820;2023-11-21T15:32:08;35.63;;;24.37;;
9904;SDS011;4991;43.566;27.820;2023-11-21T15:34:45;39.97;;;27.27;;
9904;SDS011;4991;43.566;27.820;2023-11-21T15:49:45;44.57;;;29.10;;
9904;SDS011;4991;43.566;27.820;2023-11-21T15:52:12;37.43;;;26.93;;